createdAt,value
2023-05-16T00:01:24.892Z,47.30
2023-05-16T00:03:54.288Z,40.90
2023-05-16T00:06:22.556Z,39.47
2023-05-16T00:08:50.347Z,39.40
2023-05-16T00:11:18.357Z,39.10
2023-05-16T00:13:47.776Z,42.03
2023-05-16T00:16:15.662Z,38.90
2023-05-16T00:18:45.587Z,43.60
2023-05-16T00:21:15.696Z,38.70
2023-05-16T00:23:43.603Z,40.90
2023-05-16T00:26:11.486Z,40.40
2023-05-16T00:28:42.576Z,43.53
2023-05-16T00:31:10.444Z,49.40
2023-05-16T00:33:38.187Z,44.80
2023-05-16T00:36:06.320Z,40.77
2023-05-16T00:38:35.540Z,39.97
2023-05-16T00:41:04.259Z,41.53
2023-05-16T00:43:32.160Z,41.73
2023-05-16T00:46:00.698Z,43.13
2023-05-16T00:48:32.136Z,41.00
2023-05-16T00:51:01.705Z,45.20
2023-05-16T00:53:29.576Z,42.07
2023-05-16T00:56:00.356Z,47.93
2023-05-16T00:58:29.975Z,42.90
2023-05-16T01:00:58.430Z,57.63
2023-05-16T01:03:27.278Z,43.43
2023-05-16T01:05:55.352Z,45.83
2023-05-16T01:08:23.054Z,41.60
2023-05-16T01:11:00.177Z,46.27
2023-05-16T01:13:34.254Z,49.87
2023-05-16T01:16:07.088Z,45.60
2023-05-16T01:18:42.916Z,50.17
2023-05-16T01:21:13.466Z,54.63
2023-05-16T01:23:45.117Z,45.50
2023-05-16T01:26:24.187Z,52.10
2023-05-16T01:28:53.224Z,49.90
2023-05-16T01:31:21.282Z,52.37
2023-05-16T01:33:49.677Z,50.47
2023-05-16T01:36:22.228Z,50.93
2023-05-16T01:38:58.359Z,51.40
2023-05-16T01:41:32.511Z,49.67
2023-05-16T01:44:01.466Z,48.97
2023-05-16T01:46:32.712Z,53.73
2023-05-16T01:49:05.438Z,49.53
2023-05-16T01:51:34.361Z,48.23
2023-05-16T01:54:06.357Z,49.63
2023-05-16T01:56:38.563Z,50.00
2023-05-16T01:59:07.433Z,48.60
2023-05-16T02:01:35.237Z,48.90
2023-05-16T02:04:03.629Z,51.63
2023-05-16T02:06:31.820Z,49.47
2023-05-16T02:08:59.718Z,50.60
2023-05-16T02:11:27.573Z,49.80
2023-05-16T02:13:56.947Z,49.80
2023-05-16T02:16:24.737Z,48.03
2023-05-16T02:18:52.875Z,46.43
2023-05-16T02:21:20.817Z,50.57
2023-05-16T02:23:49.607Z,49.30
2023-05-16T02:26:17.569Z,45.70
2023-05-16T02:28:45.612Z,47.87
2023-05-16T02:31:15.464Z,48.20
2023-05-16T02:33:43.389Z,50.10
2023-05-16T02:36:11.176Z,51.13
2023-05-16T02:38:39.309Z,46.33
2023-05-16T02:41:06.976Z,49.27
2023-05-16T02:43:34.945Z,46.03
2023-05-16T02:46:05.477Z,46.50
2023-05-16T02:48:34.931Z,51.17
2023-05-16T02:51:02.813Z,50.60
2023-05-16T02:53:31.317Z,50.67
2023-05-16T02:55:59.208Z,46.83
2023-05-16T02:58:26.985Z,50.23
2023-05-16T03:00:54.694Z,48.40
2023-05-16T03:03:22.700Z,50.00
2023-05-16T03:05:52.422Z,50.40
2023-05-16T03:08:20.300Z,50.50
2023-05-16T03:10:48.220Z,48.67
2023-05-16T03:13:15.908Z,57.13
2023-05-16T03:15:45.907Z,46.63
2023-05-16T03:18:14.272Z,52.67
2023-05-16T03:20:43.968Z,49.60
2023-05-16T03:23:13.210Z,53.33
2023-05-16T03:25:43.126Z,51.40
2023-05-16T03:28:11.972Z,50.23
2023-05-16T03:30:41.924Z,48.63
2023-05-16T03:33:09.663Z,52.07
2023-05-16T03:35:37.801Z,53.97
2023-05-16T03:38:05.658Z,49.37
2023-05-16T03:40:35.139Z,55.67
2023-05-16T03:43:02.842Z,51.47
2023-05-16T03:45:31.904Z,48.10
2023-05-16T03:48:00.455Z,52.47
2023-05-16T03:50:28.724Z,53.70
2023-05-16T03:52:57.093Z,52.20
2023-05-16T03:55:25.661Z,56.87
2023-05-16T03:57:54.889Z,51.83
2023-05-16T04:00:22.800Z,55.53
2023-05-16T04:02:50.747Z,56.00
2023-05-16T04:05:18.578Z,54.30
2023-05-16T04:07:46.226Z,50.40
2023-05-16T04:10:14.388Z,51.30
2023-05-16T04:12:42.111Z,53.93
2023-05-16T04:15:12.116Z,58.10
2023-05-16T04:17:40.134Z,55.43
2023-05-16T04:20:08.748Z,56.93
2023-05-16T04:22:36.438Z,52.53
2023-05-16T04:25:04.446Z,58.97
2023-05-16T04:27:32.488Z,57.23
2023-05-16T04:30:00.368Z,60.00
2023-05-16T04:32:30.158Z,56.43
2023-05-16T04:34:58.850Z,50.73
2023-05-16T04:37:26.621Z,59.07
2023-05-16T04:39:55.161Z,53.90
2023-05-16T04:42:24.213Z,56.10
2023-05-16T04:44:52.619Z,52.50
2023-05-16T04:47:20.626Z,55.80
2023-05-16T04:49:50.013Z,52.53
2023-05-16T04:52:18.205Z,50.67
2023-05-16T04:54:46.061Z,50.43
2023-05-16T04:57:14.201Z,54.53
2023-05-16T04:59:41.906Z,53.43
2023-05-16T05:02:09.679Z,55.83
2023-05-16T05:04:38.553Z,57.50
2023-05-16T05:07:09.022Z,54.87
2023-05-16T05:09:38.391Z,56.73
2023-05-16T05:12:06.869Z,49.73
2023-05-16T05:14:35.010Z,56.23
2023-05-16T05:17:02.717Z,57.77
2023-05-16T05:19:30.691Z,53.43
2023-05-16T05:21:58.578Z,54.53
2023-05-16T05:24:27.951Z,48.97
2023-05-16T05:26:56.166Z,61.33
2023-05-16T05:29:24.007Z,50.53
2023-05-16T05:31:51.780Z,48.60
2023-05-16T05:34:19.506Z,55.20
2023-05-16T05:36:49.901Z,57.33
2023-05-16T05:39:17.541Z,57.23
2023-05-16T05:41:46.726Z,60.87
2023-05-16T05:44:14.714Z,59.03
2023-05-16T05:46:42.435Z,57.73
2023-05-16T05:49:10.153Z,59.00
2023-05-16T05:51:38.527Z,51.63
2023-05-16T05:54:06.334Z,55.23
2023-05-16T05:56:34.296Z,48.40
2023-05-16T05:59:03.934Z,52.30
2023-05-16T06:01:31.669Z,50.27
2023-05-16T06:04:00.793Z,52.63
2023-05-16T06:06:31.429Z,50.67
2023-05-16T06:08:59.157Z,47.00
2023-05-16T06:11:26.968Z,53.30
2023-05-16T06:13:55.017Z,58.70
2023-05-16T06:16:26.481Z,48.90
2023-05-16T06:18:54.469Z,44.93
2023-05-16T06:21:22.482Z,49.70
2023-05-16T06:23:50.246Z,50.13
2023-05-16T06:26:18.372Z,47.40
2023-05-16T06:28:46.035Z,47.10
2023-05-16T06:31:13.888Z,47.43
2023-05-16T06:33:43.045Z,52.57
2023-05-16T06:36:10.908Z,43.60
2023-05-16T06:38:38.604Z,47.27
2023-05-16T06:41:06.700Z,45.03
2023-05-16T06:43:34.413Z,44.47
2023-05-16T06:46:02.285Z,45.23
2023-05-16T06:48:30.270Z,42.53
2023-05-16T06:50:59.850Z,49.10
2023-05-16T06:53:28.641Z,43.27
2023-05-16T06:55:57.182Z,54.07
2023-05-16T06:58:25.306Z,45.20
2023-05-16T07:00:53.295Z,48.20
2023-05-16T07:03:21.505Z,52.00
2023-05-16T07:05:51.552Z,45.90
2023-05-16T07:08:20.702Z,45.90
2023-05-16T07:10:48.654Z,42.00
2023-05-16T07:13:16.394Z,43.30
2023-05-16T07:15:44.554Z,39.43
2023-05-16T07:18:12.386Z,44.33
2023-05-16T07:20:40.469Z,44.87
2023-05-16T07:23:08.249Z,39.90
2023-05-16T07:25:37.633Z,40.50
2023-05-16T07:28:05.573Z,40.83
2023-05-16T07:30:33.360Z,39.07
2023-05-16T07:33:01.594Z,38.67
2023-05-16T07:35:29.478Z,39.23
2023-05-16T07:37:57.454Z,37.17
2023-05-16T07:40:28.557Z,44.60
2023-05-16T07:42:57.928Z,36.30
2023-05-16T07:45:25.922Z,41.30
2023-05-16T07:47:54.029Z,40.80
2023-05-16T07:50:22.064Z,41.90
2023-05-16T07:52:49.731Z,40.10
2023-05-16T07:55:17.888Z,36.30
2023-05-16T07:57:47.023Z,38.90
2023-05-16T08:00:16.863Z,37.03
2023-05-16T08:02:45.109Z,38.57
2023-05-16T08:05:13.668Z,36.70
2023-05-16T08:07:41.557Z,35.73
2023-05-16T08:10:12.581Z,38.27
2023-05-16T08:12:41.698Z,37.90
2023-05-16T08:15:10.065Z,35.20
2023-05-16T08:17:39.370Z,38.07
2023-05-16T08:20:08.153Z,34.63
2023-05-16T08:22:35.971Z,36.53
2023-05-16T08:25:03.763Z,35.10
2023-05-16T08:27:32.025Z,36.17
2023-05-16T08:29:59.713Z,35.00
2023-05-16T08:32:27.943Z,37.10
2023-05-16T08:34:57.821Z,36.33
2023-05-16T08:37:25.883Z,34.93
2023-05-16T08:39:53.577Z,42.17
2023-05-16T08:42:22.525Z,35.47
2023-05-16T08:44:50.269Z,33.40
2023-05-16T08:47:21.695Z,40.17
2023-05-16T08:49:50.298Z,33.53
2023-05-16T08:52:20.126Z,39.07
2023-05-16T08:54:55.289Z,33.00
2023-05-16T08:57:34.810Z,35.80
2023-05-16T09:00:11.444Z,33.40
2023-05-16T09:02:39.637Z,34.17
2023-05-16T09:05:09.422Z,33.20
2023-05-16T09:07:38.637Z,37.77
2023-05-16T09:10:08.056Z,31.67
2023-05-16T09:12:36.389Z,32.53
2023-05-16T09:15:05.027Z,32.70
2023-05-16T09:17:40.133Z,36.50
2023-05-16T09:20:13.411Z,33.97
2023-05-16T09:22:51.960Z,31.50
2023-05-16T09:25:30.298Z,31.47
2023-05-16T09:27:59.947Z,31.73
2023-05-16T09:30:29.900Z,35.83
2023-05-16T09:32:57.743Z,32.63
2023-05-16T09:35:39.703Z,33.40
2023-05-16T09:38:16.859Z,41.10
2023-05-16T09:40:45.622Z,33.77
2023-05-16T09:43:16.504Z,38.93
2023-05-16T09:45:47.685Z,34.53
2023-05-16T09:48:16.834Z,36.07
2023-05-16T09:50:49.771Z,30.50
2023-05-16T09:53:19.501Z,32.30
2023-05-16T09:55:47.683Z,33.67
2023-05-16T09:58:18.063Z,31.80
2023-05-16T10:00:47.247Z,32.17
2023-05-16T10:03:16.390Z,35.40
2023-05-16T10:05:44.306Z,30.83
2023-05-16T10:08:14.978Z,32.90
2023-05-16T10:10:44.251Z,35.77
2023-05-16T10:13:12.801Z,31.23
2023-05-16T10:15:40.837Z,39.47
2023-05-16T10:18:11.899Z,31.33
2023-05-16T10:20:40.915Z,31.53
2023-05-16T10:23:10.699Z,34.03
2023-05-16T10:25:42.028Z,35.67
2023-05-16T10:28:11.419Z,33.30
2023-05-16T10:30:41.515Z,35.70
2023-05-16T10:33:09.790Z,38.47
2023-05-16T10:35:38.086Z,42.40
2023-05-16T10:38:08.284Z,31.73
2023-05-16T10:40:58.038Z,34.60
2023-05-16T10:43:27.938Z,34.97
2023-05-16T10:45:56.260Z,32.90
2023-05-16T10:48:30.002Z,31.80
2023-05-16T10:50:58.338Z,34.60
2023-05-16T10:53:31.108Z,30.17
2023-05-16T10:56:17.810Z,31.07
2023-05-16T10:58:50.926Z,34.67
2023-05-16T11:01:23.022Z,31.00
2023-05-16T11:04:16.801Z,34.20
2023-05-16T11:06:52.987Z,36.37
2023-05-16T11:09:25.073Z,41.70
2023-05-16T11:11:59.670Z,39.57
2023-05-16T11:14:32.744Z,39.57
2023-05-16T11:17:04.114Z,38.50
2023-05-16T11:19:33.988Z,36.57
2023-05-16T11:22:23.954Z,35.87
2023-05-16T11:24:54.114Z,32.27
2023-05-16T11:27:24.162Z,32.00
2023-05-16T11:29:54.936Z,33.53
2023-05-16T11:32:24.542Z,41.87
2023-05-16T11:34:54.612Z,30.30
2023-05-16T11:37:23.849Z,31.07
2023-05-16T11:39:52.209Z,33.37
2023-05-16T11:42:20.851Z,31.97
2023-05-16T11:44:48.950Z,31.43
2023-05-16T11:47:19.295Z,31.37
2023-05-16T11:49:49.467Z,39.90
2023-05-16T11:52:18.292Z,31.10
2023-05-16T11:54:47.136Z,34.53
2023-05-16T11:57:16.630Z,32.43
2023-05-16T11:59:45.898Z,30.80
2023-05-16T12:02:16.355Z,29.33
2023-05-16T12:04:51.018Z,25.33
2023-05-16T12:07:23.182Z,27.97
2023-05-16T12:09:54.259Z,25.00
2023-05-16T12:12:24.019Z,26.47
2023-05-16T12:14:53.261Z,26.90
2023-05-16T12:17:22.929Z,30.83
2023-05-16T12:19:53.416Z,27.10
2023-05-16T12:22:22.478Z,23.33
2023-05-16T12:24:53.086Z,29.23
2023-05-16T12:27:23.423Z,25.93
2023-05-16T12:29:52.903Z,29.23
2023-05-16T12:32:22.255Z,29.50
2023-05-16T12:34:54.705Z,26.67
2023-05-16T12:37:23.591Z,30.60
2023-05-16T12:39:52.131Z,35.33
2023-05-16T12:42:21.154Z,26.40
2023-05-16T12:44:49.636Z,25.90
2023-05-16T12:47:17.856Z,30.37
2023-05-16T12:49:47.618Z,32.50
2023-05-16T12:52:20.721Z,27.93
2023-05-16T12:54:50.370Z,26.70
2023-05-16T12:57:20.405Z,33.00
2023-05-16T12:59:48.808Z,26.70
2023-05-16T13:02:19.195Z,27.33
2023-05-16T13:04:47.573Z,25.73
2023-05-16T13:07:15.424Z,23.93
2023-05-16T13:09:45.099Z,33.23
2023-05-16T13:12:14.245Z,28.60
2023-05-16T13:14:43.920Z,28.60
2023-05-16T13:17:12.846Z,29.00
2023-05-16T13:19:40.958Z,31.50
2023-05-16T13:22:08.975Z,32.23
2023-05-16T13:24:37.175Z,28.03
2023-05-16T13:27:06.774Z,29.90
2023-05-16T13:29:34.996Z,27.17
2023-05-16T13:32:04.135Z,27.20
2023-05-16T13:34:32.296Z,31.80
2023-05-16T13:37:00.702Z,28.97
2023-05-16T13:39:29.024Z,34.63
2023-05-16T13:41:57.473Z,27.67
2023-05-16T13:44:27.496Z,30.27
2023-05-16T13:46:57.474Z,25.47
2023-05-16T13:49:26.663Z,28.50
2023-05-16T13:51:58.569Z,27.90
2023-05-16T13:54:26.686Z,31.73
2023-05-16T13:56:55.555Z,29.70
2023-05-16T13:59:45.648Z,29.57
2023-05-16T14:02:16.407Z,28.77
2023-05-16T14:04:46.076Z,28.67
2023-05-16T14:07:15.828Z,29.40
2023-05-16T14:09:45.480Z,37.93
2023-05-16T14:12:14.748Z,29.50
2023-05-16T14:14:42.836Z,26.10
2023-05-16T14:17:11.027Z,28.87
2023-05-16T14:19:40.188Z,29.23
2023-05-16T14:22:08.176Z,34.30
2023-05-16T14:24:36.146Z,27.90
2023-05-16T14:27:04.013Z,28.70
2023-05-16T14:29:31.863Z,31.33
2023-05-16T14:31:59.775Z,25.53
2023-05-16T14:34:27.537Z,30.70
2023-05-16T14:36:56.796Z,27.63
2023-05-16T14:39:24.631Z,30.33
2023-05-16T14:41:52.359Z,25.30
2023-05-16T14:44:21.824Z,27.00
2023-05-16T14:46:50.123Z,26.97
2023-05-16T14:49:17.962Z,27.43
2023-05-16T14:51:49.219Z,25.60
2023-05-16T14:54:19.094Z,25.97
2023-05-16T14:56:47.207Z,23.47
2023-05-16T14:59:15.700Z,26.43
2023-05-16T15:01:43.701Z,25.40
2023-05-16T15:04:11.628Z,27.10
2023-05-16T15:06:40.318Z,24.77
2023-05-16T15:09:08.097Z,26.10
2023-05-16T15:11:37.553Z,24.60
2023-05-16T15:14:07.476Z,23.57
2023-05-16T15:16:36.588Z,25.07
2023-05-16T15:19:04.722Z,24.60
2023-05-16T15:21:32.868Z,27.93
2023-05-16T15:24:00.744Z,23.90
2023-05-16T15:26:29.662Z,23.60
2023-05-16T15:28:59.787Z,23.60
2023-05-16T15:31:28.356Z,22.63
2023-05-16T15:33:56.395Z,33.00
2023-05-16T15:36:26.156Z,28.00
2023-05-16T15:38:54.118Z,26.13
2023-05-16T15:41:37.299Z,31.13
2023-05-16T15:44:13.109Z,27.53
2023-05-16T15:46:42.134Z,28.07
2023-05-16T15:49:10.669Z,27.10
2023-05-16T15:51:39.045Z,24.50
2023-05-16T15:54:09.567Z,23.50
2023-05-16T15:56:37.464Z,21.47
2023-05-16T15:59:05.444Z,23.57
2023-05-16T16:01:34.742Z,23.57
2023-05-16T16:04:02.786Z,22.47
2023-05-16T16:06:31.572Z,21.57
2023-05-16T16:08:59.505Z,25.70
2023-05-16T16:11:27.974Z,27.53
2023-05-16T16:13:56.110Z,28.63
2023-05-16T16:16:25.964Z,23.53
2023-05-16T16:18:56.618Z,25.03
2023-05-16T16:21:26.129Z,22.90
2023-05-16T16:23:54.424Z,23.40
2023-05-16T16:26:22.427Z,28.43
2023-05-16T16:28:51.204Z,22.37
2023-05-16T16:31:19.377Z,23.87
2023-05-16T16:33:49.245Z,23.30
2023-05-16T16:36:19.819Z,24.80
2023-05-16T16:38:47.917Z,23.43
2023-05-16T16:41:16.475Z,28.17
2023-05-16T16:43:46.179Z,28.60
2023-05-16T16:46:14.325Z,29.87
2023-05-16T16:48:42.190Z,23.53
2023-05-16T16:51:10.523Z,26.77
2023-05-16T16:53:40.991Z,22.30
2023-05-16T16:56:09.306Z,26.07
2023-05-16T16:58:37.726Z,24.20
2023-05-16T17:01:05.840Z,26.90
2023-05-16T17:03:34.700Z,25.77
2023-05-16T17:06:03.070Z,22.70
2023-05-16T17:08:31.371Z,24.80
2023-05-16T17:11:05.036Z,23.77
2023-05-16T17:13:34.650Z,23.37
2023-05-16T17:16:02.589Z,24.90
2023-05-16T17:18:33.051Z,21.93
2023-05-16T17:21:03.118Z,21.60
2023-05-16T17:23:30.838Z,24.40
2023-05-16T17:26:01.115Z,24.23
2023-05-16T17:28:31.225Z,24.93
2023-05-16T17:31:00.274Z,26.10
2023-05-16T17:33:28.310Z,23.77
2023-05-16T17:35:57.117Z,28.90
2023-05-16T17:38:25.386Z,24.00
2023-05-16T17:40:53.801Z,24.07
2023-05-16T17:43:23.096Z,26.03
2023-05-16T17:45:51.272Z,24.90
2023-05-16T17:48:19.199Z,23.17
2023-05-16T17:50:47.157Z,26.10
2023-05-16T17:53:16.790Z,27.77
2023-05-16T17:55:44.587Z,32.03
2023-05-16T17:58:12.971Z,31.23
2023-05-16T18:00:42.323Z,23.00
2023-05-16T18:03:11.420Z,24.30
2023-05-16T18:05:39.731Z,24.93
2023-05-16T18:08:08.641Z,24.07
2023-05-16T18:10:59.347Z,27.97
2023-05-16T18:13:29.404Z,25.13
2023-05-16T18:15:58.601Z,24.20
2023-05-16T18:18:27.123Z,28.57
2023-05-16T18:20:56.675Z,26.37
2023-05-16T18:23:24.980Z,32.03
2023-05-16T18:25:53.969Z,26.90
2023-05-16T18:28:23.801Z,25.83
2023-05-16T18:30:51.927Z,25.03
2023-05-16T18:33:21.677Z,26.60
2023-05-16T18:35:49.901Z,27.40
2023-05-16T18:38:31.290Z,25.97
2023-05-16T18:41:00.800Z,24.20
2023-05-16T18:43:29.090Z,22.97
2023-05-16T18:45:57.840Z,27.40
2023-05-16T18:48:29.411Z,27.90
2023-05-16T18:50:57.429Z,26.53
2023-05-16T18:53:25.702Z,36.63
2023-05-16T18:55:56.472Z,25.87
2023-05-16T18:58:24.268Z,29.30
2023-05-16T19:00:52.843Z,30.00
2023-05-16T19:03:20.992Z,28.53
2023-05-16T19:05:50.600Z,30.23
2023-05-16T19:08:18.688Z,27.13
2023-05-16T19:10:47.016Z,24.17
2023-05-16T19:13:15.568Z,28.30
2023-05-16T19:15:43.815Z,27.27
2023-05-16T19:18:11.944Z,25.50
2023-05-16T19:20:39.801Z,26.60
2023-05-16T19:23:09.516Z,28.73
2023-05-16T19:25:38.117Z,26.33
2023-05-16T19:28:06.054Z,24.70
2023-05-16T19:30:35.250Z,23.03
2023-05-16T19:33:04.120Z,25.57
2023-05-16T19:35:32.732Z,28.93
2023-05-16T19:38:00.625Z,27.93
2023-05-16T19:40:30.098Z,23.03
2023-05-16T19:43:01.168Z,24.63
2023-05-16T19:45:30.022Z,24.70
2023-05-16T19:47:58.267Z,23.90
2023-05-16T19:50:26.323Z,26.73
2023-05-16T19:52:54.358Z,21.90
2023-05-16T19:55:22.444Z,24.63
2023-05-16T19:57:52.342Z,23.67
2023-05-16T20:00:21.671Z,30.40
2023-05-16T20:02:49.781Z,27.33
2023-05-16T20:05:22.340Z,22.30
2023-05-16T20:07:51.925Z,24.10
2023-05-16T20:10:21.919Z,23.37
2023-05-16T20:12:51.918Z,27.87
2023-05-16T20:15:20.009Z,24.07
2023-05-16T20:17:47.808Z,24.57
2023-05-16T20:20:16.469Z,27.80
2023-05-16T20:22:44.617Z,22.10
2023-05-16T20:25:13.272Z,24.23
2023-05-16T20:27:42.149Z,27.37
2023-05-16T20:30:12.136Z,28.60
2023-05-16T20:32:41.122Z,25.93
2023-05-16T20:35:11.415Z,23.90
2023-05-16T20:37:41.238Z,24.23
2023-05-16T20:40:09.804Z,26.17
2023-05-16T20:42:37.589Z,27.03
2023-05-16T20:45:07.037Z,22.80
2023-05-16T20:47:36.829Z,23.50
2023-05-16T20:50:06.670Z,23.90
2023-05-16T20:52:35.583Z,24.70
2023-05-16T20:55:03.551Z,21.90
2023-05-16T20:57:31.566Z,23.40
2023-05-16T20:59:59.872Z,22.67
2023-05-16T21:02:27.922Z,23.13
2023-05-16T21:04:59.300Z,25.13
2023-05-16T21:07:37.434Z,27.67
2023-05-16T21:10:06.551Z,25.33
2023-05-16T21:12:34.494Z,23.60
2023-05-16T21:15:03.867Z,24.30
2023-05-16T21:17:32.014Z,26.20
2023-05-16T21:20:01.697Z,26.23
2023-05-16T21:22:29.837Z,24.00
2023-05-16T21:24:57.898Z,26.70
2023-05-16T21:27:25.639Z,24.67
2023-05-16T21:29:53.595Z,26.33
2023-05-16T21:32:21.440Z,28.27
2023-05-16T21:34:49.475Z,26.00
2023-05-16T21:37:18.942Z,25.63
2023-05-16T21:39:46.871Z,24.20
2023-05-16T21:42:14.734Z,31.90
2023-05-16T21:44:43.053Z,29.00
2023-05-16T21:47:10.804Z,26.70
2023-05-16T21:49:38.854Z,25.63
2023-05-16T21:52:07.591Z,26.83
2023-05-16T21:54:37.440Z,30.40
2023-05-16T21:57:06.838Z,28.00
2023-05-16T21:59:34.718Z,24.70
2023-05-16T22:02:02.453Z,28.83
2023-05-16T22:04:31.214Z,26.57
2023-05-16T22:06:59.114Z,29.97
2023-05-16T22:09:26.996Z,32.40
2023-05-16T22:11:56.339Z,25.87
2023-05-16T22:14:24.568Z,24.97
2023-05-16T22:16:52.299Z,23.83
2023-05-16T22:19:20.287Z,27.03
2023-05-16T22:21:48.067Z,25.70
2023-05-16T22:24:16.112Z,27.27
2023-05-16T22:26:43.925Z,27.50
2023-05-16T22:29:13.098Z,26.30
2023-05-16T22:31:41.184Z,47.17
2023-05-16T22:34:09.198Z,25.50
2023-05-16T22:36:36.992Z,30.03
2023-05-16T22:39:06.208Z,26.70
2023-05-16T22:41:34.083Z,23.80
2023-05-16T22:44:01.828Z,27.40
2023-05-16T22:46:30.929Z,32.40
2023-05-16T22:48:59.193Z,28.47
2023-05-16T22:51:26.979Z,27.20
2023-05-16T22:53:54.976Z,26.43
2023-05-16T22:56:22.904Z,27.63
2023-05-16T22:58:50.781Z,37.27
2023-05-16T23:01:18.696Z,29.13
2023-05-16T23:03:48.387Z,26.00
2023-05-16T23:06:16.675Z,32.00
2023-05-16T23:08:44.486Z,27.27
2023-05-16T23:11:12.999Z,26.50
2023-05-16T23:13:40.735Z,28.60
2023-05-16T23:16:10.241Z,30.43
2023-05-16T23:18:38.195Z,29.87
2023-05-16T23:21:07.816Z,29.80
2023-05-16T23:23:35.679Z,32.03
2023-05-16T23:26:04.033Z,30.10
2023-05-16T23:28:31.768Z,30.93
2023-05-16T23:30:59.893Z,31.40
2023-05-16T23:33:28.701Z,32.27
2023-05-16T23:35:57.167Z,37.50
2023-05-16T23:38:27.289Z,34.37
2023-05-16T23:40:55.383Z,33.07
2023-05-16T23:43:23.055Z,34.30
2023-05-16T23:45:50.959Z,32.93
2023-05-16T23:48:19.104Z,32.00
2023-05-16T23:50:46.877Z,31.93
2023-05-16T23:53:14.690Z,31.87
2023-05-16T23:55:44.414Z,29.20
2023-05-16T23:58:12.631Z,33.10
